This is the latest recevied weather packets stored in our database for station/object N0NAI-13. If no packets are shown the sender has not sent any weather packets the latest 10 day(s).
| Time | Temp. | Humidity | Pressure | Rain* | Wind** | Luminosity | Snow |
|---|---|---|---|---|---|---|---|
| 1777883721 | 9.44° C | 64% | 1003.4 hPa | 0 mm | - | - | - |
| 1777883124 | 9.44° C | 63% | 1003.4 hPa | 0 mm | - | - | - |
| 1777882527 | 9.44° C | 64% | 1003.6 hPa | 0 mm | - | - | - |
| 1777881930 | 8.89° C | 66% | 1003.8 hPa | 0 mm | - | - | - |
| 1777881333 | 8.33° C | 68% | 1004 hPa | 0 mm | - | - | - |
| 1777880718 | 7.78° C | 72% | 1004.1 hPa | 0 mm | - | - | - |
| 1777880121 | 7.22° C | 75% | 1004.2 hPa | 0 mm | - | - | - |
| 1777879523 | 6.11° C | 80% | 1004.3 hPa | 0 mm | - | - | - |
| 1777878926 | 5.56° C | 86% | 1004.5 hPa | 0 mm | - | - | - |
| 1777878329 | 5.56° C | 87% | 1004.7 hPa | 0 mm | - | - | - |
| 1777877726 | 5.56° C | 87% | 1004.9 hPa | 0 mm | - | - | - |
| 1777877117 | 5.56° C | 86% | 1005 hPa | 0 mm | - | - | - |
| 1777876520 | 6.11° C | 85% | 1005.1 hPa | 0 mm | - | - | - |
| 1777875917 | 6.11° C | 84% | 1005.4 hPa | 0 mm | - | - | - |
| 1777875326 | 6.11° C | 84% | 1005.5 hPa | 0 mm | - | - | - |
| 1777874728 | 6.11° C | 82% | 1005.7 hPa | 0 mm | - | - | - |
| 1777874132 | 6.67° C | 80% | 1005.8 hPa | 0 mm | - | - | - |
| 1777873517 | 6.67° C | 79% | 1005.9 hPa | 0 mm | - | - | - |
| 1777872919 | 7.22° C | 79% | 1006 hPa | 0 mm | - | - | - |
| 1777872323 | 7.78° C | 78% | 1006.2 hPa | 0 mm | - | - | - |
| 1777871725 | 7.78° C | 75% | 1006.3 hPa | 0 mm | - | - | - |
| 1777871123 | 7.78° C | 74% | 1006.3 hPa | 0 mm | - | - | - |
| 1777870525 | 8.33° C | 72% | 1006.5 hPa | 0 mm | - | - | - |
| 1777869928 | 8.33° C | 71% | 1006.6 hPa | 0 mm | - | - | - |
| 1777869331 | 8.89° C | 71% | 1006.7 hPa | 0 mm | - | - | - |
* Rain latest hour (hover to see other rain measurements)
** Current wind speed in m/s (hover to see current wind gust speed)